Time;durP1;ratioP1;P1;durP2;ratioP2;P2;SDS_P1;SDS_P2;PMS_P1;PMS_P2;Temp;Humidity;BMP_temperature;BMP_pressure;BME280_temperature;BME280_humidity;BME280_pressure;Samples;Min_cycle;Max_cycle;Signal;HPM_P1;HPM_P2
2023/01/22 00:00:14;;;;;;;21.33;9.63;;;0.10;99.90;;;;;;5072001;28;20108;-38
2023/01/22 00:02:40;;;;;;;22.20;9.63;;;0.10;99.90;;;;;;5069640;28;20943;-35
2023/01/22 00:05:06;;;;;;;19.42;7.97;;;0.10;99.90;;;;;;5074908;28;20027;-38
2023/01/22 00:07:31;;;;;;;24.73;10.15;;;0.10;99.90;;;;;;5074532;28;20119;-38
2023/01/22 00:09:58;;;;;;;21.85;8.95;;;0.10;99.90;;;;;;5073481;28;20112;-39
2023/01/22 00:12:24;;;;;;;19.42;9.20;;;0.20;99.90;;;;;;5073760;28;20025;-40
2023/01/22 00:14:50;;;;;;;25.73;8.55;;;0.30;99.90;;;;;;5072175;28;20550;-35
2023/01/22 00:17:15;;;;;;;20.58;8.77;;;0.40;99.90;;;;;;5073891;28;20108;-39
2023/01/22 00:19:42;;;;;;;20.42;8.75;;;0.40;99.90;;;;;;5075248;28;20548;-40
2023/01/22 00:22:09;;;;;;;25.55;8.60;;;0.50;99.90;;;;;;5074547;28;20024;-38
2023/01/22 00:24:35;;;;;;;20.17;9.50;;;0.60;99.90;;;;;;5072851;28;20029;-38
2023/01/22 00:27:00;;;;;;;19.77;7.95;;;0.70;99.90;;;;;;5074062;28;20044;-37
2023/01/22 00:29:26;;;;;;;18.88;8.45;;;0.70;99.90;;;;;;5069782;28;20024;-38
2023/01/22 00:31:52;;;;;;;20.02;8.18;;;0.70;99.90;;;;;;5070901;28;20456;-37
2023/01/22 00:34:17;;;;;;;18.13;8.02;;;0.80;99.90;;;;;;5071657;28;20073;-38
2023/01/22 00:36:43;;;;;;;17.10;7.90;;;0.80;99.90;;;;;;5072784;28;20162;-38
2023/01/22 00:39:09;;;;;;;15.07;7.43;;;0.80;99.90;;;;;;5066317;28;20025;-40
2023/01/22 00:41:35;;;;;;;15.43;7.75;;;0.80;99.90;;;;;;5070954;28;20066;-39
2023/01/22 00:44:19;;;;;;;20.77;8.95;;;0.80;99.90;;;;;;5070064;28;20033;-41
2023/01/22 00:46:44;;;;;;;16.15;7.38;;;0.90;99.90;;;;;;5069811;28;20055;-38
2023/01/22 00:49:11;;;;;;;17.73;7.93;;;0.90;99.90;;;;;;5071158;28;20489;-40
2023/01/22 00:51:38;;;;;;;15.13;7.35;;;0.90;99.90;;;;;;5069883;28;20055;-40
2023/01/22 00:54:03;;;;;;;19.25;7.93;;;1.00;99.90;;;;;;5071417;28;20580;-39
2023/01/22 00:56:29;;;;;;;17.10;6.30;;;1.00;99.90;;;;;;5073747;28;20111;-40
2023/01/22 00:58:54;;;;;;;18.70;7.35;;;1.10;99.90;;;;;;5071334;28;20016;-39
2023/01/22 01:01:20;;;;;;;21.65;8.40;;;1.20;99.90;;;;;;5072167;28;20528;-37
2023/01/22 01:03:46;;;;;;;17.42;8.05;;;1.20;99.90;;;;;;5068115;28;20031;-36
2023/01/22 01:06:18;;;;;;;18.20;8.27;;;1.20;99.90;;;;;;5072450;28;20500;-38
2023/01/22 01:08:44;;;;;;;16.05;7.40;;;1.30;99.90;;;;;;5077046;28;20032;-40
2023/01/22 01:11:13;;;;;;;19.02;7.28;;;1.40;99.90;;;;;;5078920;28;20495;-40
2023/01/22 01:13:41;;;;;;;13.73;6.82;;;1.40;99.90;;;;;;5074271;28;20465;-37
2023/01/22 01:16:18;;;;;;;15.07;7.22;;;1.40;99.90;;;;;;5073622;28;20103;-37
2023/01/22 01:18:44;;;;;;;13.15;6.80;;;1.40;99.90;;;;;;5074121;28;20536;-36
2023/01/22 01:21:11;;;;;;;14.15;7.13;;;1.40;99.90;;;;;;5073012;28;20376;-35
2023/01/22 01:23:37;;;;;;;11.75;6.78;;;1.40;99.90;;;;;;5073088;28;20044;-40
2023/01/22 01:26:08;;;;;;;13.40;6.65;;;1.50;99.90;;;;;;5071828;28;20026;-39
2023/01/22 01:28:35;;;;;;;13.63;6.18;;;1.50;99.90;;;;;;5073976;28;20541;-38
2023/01/22 01:31:03;;;;;;;15.57;6.43;;;1.40;99.90;;;;;;5071833;28;21113;-37
2023/01/22 01:33:29;;;;;;;14.95;6.07;;;1.40;99.90;;;;;;5071750;28;20139;-38
2023/01/22 01:36:02;;;;;;;16.73;7.60;;;1.40;99.90;;;;;;5073609;28;20056;-37
2023/01/22 01:38:28;;;;;;;10.70;6.20;;;1.40;99.90;;;;;;5071920;28;20032;-39
2023/01/22 01:40:54;;;;;;;11.48;5.85;;;1.40;99.90;;;;;;5072838;28;20016;-35
2023/01/22 01:43:20;;;;;;;16.05;7.18;;;1.40;99.90;;;;;;5073216;28;20098;-37
2023/01/22 01:45:46;;;;;;;16.27;7.00;;;1.40;99.90;;;;;;5072595;28;20020;-36
2023/01/22 01:48:34;;;;;;;14.88;6.65;;;1.30;99.90;;;;;;5072862;28;20492;-37
2023/01/22 01:51:08;;;;;;;;;;;1.30;99.90;;;;;;5073052;28;20473;-40
2023/01/22 01:53:36;;;;;;;8.80;4.75;;;1.30;99.90;;;;;;5073306;28;19950;-36
2023/01/22 01:56:06;;;;;;;12.25;5.15;;;1.30;99.90;;;;;;5072435;28;20021;-38
2023/01/22 01:58:34;;;;;;;11.70;5.68;;;1.40;99.90;;;;;;5073267;28;20369;-37
2023/01/22 02:01:15;;;;;;;10.98;5.50;;;1.40;99.90;;;;;;5072501;28;20020;-39
2023/01/22 02:03:41;;;;;;;10.55;5.95;;;1.40;99.90;;;;;;5069237;28;20358;-40
2023/01/22 02:06:12;;;;;;;14.00;5.40;;;1.40;99.90;;;;;;5065168;28;20477;-40
2023/01/22 02:08:39;;;;;;;9.45;5.43;;;1.50;99.90;;;;;;5072403;28;20503;-39
2023/01/22 02:11:05;;;;;;;8.70;5.63;;;1.40;99.90;;;;;;5073005;28;20025;-38
2023/01/22 02:16:18;;;;;;;11.07;5.47;;;1.40;99.90;;;;;;5071392;28;20047;-36
2023/01/22 02:18:43;;;;;;;12.68;5.97;;;1.40;99.90;;;;;;5070824;28;20017;-37
2023/01/22 02:21:28;;;;;;;11.30;5.20;;;1.50;99.90;;;;;;5071196;28;20052;-38
2023/01/22 02:23:54;;;;;;;14.63;5.35;;;1.50;99.90;;;;;;5070138;28;20027;-39
2023/01/22 02:26:20;;;;;;;11.02;5.53;;;1.50;99.90;;;;;;5071499;28;20028;-37
2023/01/22 02:28:45;;;;;;;8.82;4.65;;;1.50;99.90;;;;;;5071025;28;20051;-34
2023/01/22 02:31:11;;;;;;;12.20;4.82;;;1.50;99.90;;;;;;5069912;28;20024;-34
2023/01/22 02:33:36;;;;;;;9.50;4.82;;;1.50;99.90;;;;;;5069488;28;20024;-36
2023/01/22 02:36:02;;;;;;;9.45;4.85;;;1.50;99.90;;;;;;5070995;28;20477;-37
2023/01/22 02:38:28;;;;;;;11.93;5.57;;;1.60;99.90;;;;;;5069750;28;20064;-36
2023/01/22 02:40:53;;;;;;;10.13;4.78;;;1.60;99.90;;;;;;5069048;28;20465;-40
2023/01/22 02:43:19;;;;;;;11.32;5.07;;;1.60;99.90;;;;;;5070095;28;20032;-38
2023/01/22 02:45:45;;;;;;;13.35;5.35;;;1.60;99.90;;;;;;5070033;28;20036;-36
2023/01/22 02:48:10;;;;;;;11.52;5.32;;;1.70;99.90;;;;;;5068408;28;20452;-33
2023/01/22 02:50:36;;;;;;;9.55;5.00;;;1.70;99.90;;;;;;5069402;28;20525;-35
2023/01/22 02:53:01;;;;;;;11.13;5.40;;;1.70;99.90;;;;;;5069542;28;20063;-38
2023/01/22 02:55:47;;;;;;;8.13;4.55;;;1.70;99.90;;;;;;5070496;28;20140;-35
2023/01/22 02:58:14;;;;;;;10.32;5.03;;;1.70;99.90;;;;;;5070146;28;20591;-37
2023/01/22 03:00:39;;;;;;;10.10;4.70;;;1.70;99.90;;;;;;5069975;28;20389;-41
2023/01/22 03:03:06;;;;;;;10.25;4.57;;;1.70;99.90;;;;;;5070036;28;20028;-39
2023/01/22 03:05:33;;;;;;;9.88;4.43;;;1.80;99.90;;;;;;5064667;28;21138;-37
2023/01/22 03:07:59;;;;;;;12.30;5.15;;;1.80;99.90;;;;;;5069801;28;20488;-40
2023/01/22 03:10:24;;;;;;;12.27;5.35;;;1.70;99.90;;;;;;5069741;28;20123;-38
2023/01/22 03:21:13;;;;;;;8.35;4.50;;;1.50;99.90;;;;;;5068713;28;20035;-36
2023/01/22 03:23:39;;;;;;;10.55;4.35;;;1.60;99.90;;;;;;5071317;28;20495;-39
2023/01/22 03:26:05;;;;;;;10.55;4.50;;;1.60;99.90;;;;;;5072480;28;20016;-37
2023/01/22 03:28:31;;;;;;;9.57;4.75;;;1.60;99.90;;;;;;5071838;28;20060;-36
2023/01/22 03:30:57;;;;;;;16.48;4.53;;;1.50;99.90;;;;;;5072689;28;20485;-37
2023/01/22 03:33:23;;;;;;;9.20;4.60;;;1.50;99.90;;;;;;5071595;28;20021;-39
2023/01/22 03:35:49;;;;;;;11.13;4.68;;;1.60;99.90;;;;;;5070522;28;20071;-36
2023/01/22 03:38:14;;;;;;;8.73;4.07;;;1.60;99.90;;;;;;5071371;28;20417;-42
2023/01/22 03:40:40;;;;;;;11.90;5.05;;;1.70;99.90;;;;;;5072766;28;20488;-37
2023/01/22 03:43:06;;;;;;;7.60;3.80;;;1.70;99.90;;;;;;5069553;28;20461;-40
2023/01/22 03:45:32;;;;;;;15.55;4.00;;;1.60;99.90;;;;;;5071110;28;20028;-40
2023/01/22 03:47:58;;;;;;;7.43;4.13;;;1.60;99.90;;;;;;5071075;28;20059;-36
2023/01/22 03:50:24;;;;;;;9.27;4.28;;;1.60;99.90;;;;;;5074458;28;20055;-36
2023/01/22 03:52:49;;;;;;;9.70;3.92;;;1.50;99.90;;;;;;5073576;28;20468;-35
2023/01/22 03:55:15;;;;;;;7.57;3.92;;;1.50;99.90;;;;;;5071656;28;20484;-39
2023/01/22 03:57:41;;;;;;;6.78;3.97;;;1.60;99.90;;;;;;5072894;28;20085;-37
2023/01/22 04:00:07;;;;;;;6.90;3.67;;;1.50;99.90;;;;;;5073358;28;20027;-37
2023/01/22 04:02:33;;;;;;;9.88;4.30;;;1.50;99.90;;;;;;5071692;28;20025;-35
2023/01/22 04:04:59;;;;;;;9.23;4.22;;;1.50;99.90;;;;;;5070019;28;20103;-37
2023/01/22 04:07:25;;;;;;;6.82;3.92;;;1.60;99.90;;;;;;5071354;28;20432;-37
2023/01/22 04:09:51;;;;;;;7.22;3.90;;;1.50;99.90;;;;;;5070256;28;20105;-41
2023/01/22 04:12:17;;;;;;;10.88;4.50;;;1.50;99.90;;;;;;5069921;28;20154;-38
2023/01/22 04:14:43;;;;;;;9.00;3.47;;;1.50;99.90;;;;;;5071176;28;20024;-37
2023/01/22 04:17:09;;;;;;;8.40;3.88;;;1.40;99.90;;;;;;5070640;28;20032;-41
2023/01/22 04:19:34;;;;;;;9.93;4.10;;;1.40;99.90;;;;;;5072345;28;20021;-35
2023/01/22 04:22:00;;;;;;;8.90;4.65;;;1.30;99.90;;;;;;5071621;28;20021;-42
2023/01/22 04:24:25;;;;;;;9.60;4.75;;;1.30;99.90;;;;;;5071979;28;20480;-39
2023/01/22 04:26:51;;;;;;;8.40;3.40;;;1.30;99.90;;;;;;5072264;28;20035;-35
2023/01/22 04:29:17;;;;;;;6.30;4.10;;;1.30;99.90;;;;;;5072221;28;20052;-42
2023/01/22 04:31:43;;;;;;;7.75;4.05;;;1.30;99.90;;;;;;5070945;28;20029;-39
2023/01/22 04:34:09;;;;;;;10.77;4.68;;;1.20;99.90;;;;;;5072041;28;20035;-41
2023/01/22 04:36:34;;;;;;;8.73;4.45;;;1.20;99.90;;;;;;5071729;28;20028;-41
2023/01/22 04:39:00;;;;;;;9.23;4.47;;;1.20;99.90;;;;;;5071167;28;20430;-36
2023/01/22 04:41:26;;;;;;;9.77;4.32;;;1.20;99.90;;;;;;5071235;28;20027;-39
2023/01/22 04:43:51;;;;;;;14.00;4.40;;;1.20;99.90;;;;;;5072614;28;20570;-38
2023/01/22 04:46:17;;;;;;;7.85;4.47;;;1.20;99.90;;;;;;5071714;28;20035;-40
2023/01/22 04:48:44;;;;;;;9.57;4.57;;;1.20;99.90;;;;;;5071842;28;20465;-38
2023/01/22 04:51:10;;;;;;;11.83;5.20;;;1.30;99.90;;;;;;5069618;28;20089;-39
2023/01/22 04:53:36;;;;;;;8.10;4.78;;;1.30;99.90;;;;;;5072625;28;20028;-38
2023/01/22 04:56:02;;;;;;;12.82;5.13;;;1.30;99.90;;;;;;5069566;28;20032;-38
2023/01/22 04:58:28;;;;;;;9.68;4.30;;;1.30;99.90;;;;;;5071576;28;20081;-40
2023/01/22 05:00:55;;;;;;;9.68;4.50;;;1.40;99.90;;;;;;5070343;28;20016;-39
2023/01/22 05:03:24;;;;;;;8.80;4.40;;;1.30;99.90;;;;;;5068661;28;20025;-40
2023/01/22 05:05:49;;;;;;;10.25;4.28;;;1.20;99.90;;;;;;5071037;28;20051;-38
2023/01/22 05:08:15;;;;;;;7.32;4.05;;;1.20;99.90;;;;;;5070665;28;20481;-34
2023/01/22 05:10:41;;;;;;;9.93;4.97;;;1.20;99.90;;;;;;5070365;28;20032;-39
2023/01/22 05:13:07;;;;;;;12.13;4.60;;;1.20;99.90;;;;;;5069829;28;20020;-36
2023/01/22 05:15:34;;;;;;;9.70;4.65;;;1.20;99.90;;;;;;5071918;28;20095;-42
2023/01/22 05:17:59;;;;;;;14.23;4.93;;;1.20;99.90;;;;;;5069335;28;20031;-36
2023/01/22 05:20:25;;;;;;;10.13;5.22;;;1.30;99.90;;;;;;5071502;28;20397;-39
2023/01/22 05:22:51;;;;;;;9.60;4.50;;;1.30;99.90;;;;;;5071593;28;20041;-38
2023/01/22 05:25:17;;;;;;;14.55;4.78;;;1.30;99.90;;;;;;5071121;28;20322;-40
2023/01/22 05:27:43;;;;;;;12.85;5.15;;;1.30;99.90;;;;;;5067817;28;20448;-38
2023/01/22 05:30:10;;;;;;;8.40;4.22;;;1.30;99.90;;;;;;5070131;28;20056;-38
2023/01/22 05:32:36;;;;;;;12.02;4.53;;;1.40;99.90;;;;;;5069956;28;20020;-34
2023/01/22 05:35:03;;;;;;;9.65;5.13;;;1.40;99.90;;;;;;5069750;28;20059;-38
2023/01/22 05:37:30;;;;;;;10.75;4.75;;;1.50;99.90;;;;;;5069222;28;20036;-37
2023/01/22 05:39:56;;;;;;;6.97;3.93;;;1.50;99.90;;;;;;5070486;28;20480;-36
2023/01/22 05:42:21;;;;;;;8.60;4.45;;;1.50;99.90;;;;;;5070155;28;20020;-36
2023/01/22 05:44:47;;;;;;;11.82;5.10;;;1.50;99.90;;;;;;5070273;28;20039;-35
2023/01/22 05:47:13;;;;;;;8.45;4.40;;;1.50;99.90;;;;;;5068487;28;20028;-37
2023/01/22 05:49:39;;;;;;;11.70;4.63;;;1.50;99.90;;;;;;5070444;28;20484;-38
2023/01/22 05:52:04;;;;;;;11.23;4.22;;;1.50;99.90;;;;;;5071209;28;20115;-39
2023/01/22 05:54:30;;;;;;;11.63;4.28;;;1.60;99.90;;;;;;5069879;28;20044;-37
2023/01/22 05:56:56;;;;;;;10.13;4.40;;;1.60;99.90;;;;;;5070670;28;20016;-39
2023/01/22 05:59:21;;;;;;;7.78;3.92;;;1.50;99.90;;;;;;5070741;28;20095;-35
2023/01/22 06:01:47;;;;;;;9.10;4.88;;;1.50;99.90;;;;;;5069936;28;20078;-39
2023/01/22 06:04:12;;;;;;;9.32;4.75;;;1.50;99.90;;;;;;5070371;28;20017;-38
2023/01/22 06:06:38;;;;;;;6.25;4.30;;;1.40;99.90;;;;;;5068539;28;20086;-34
2023/01/22 06:09:04;;;;;;;7.45;4.70;;;1.40;99.90;;;;;;5070258;28;20092;-37
2023/01/22 06:11:29;;;;;;;9.30;4.10;;;1.40;99.90;;;;;;5070144;28;20029;-36
2023/01/22 06:13:55;;;;;;;10.38;4.65;;;1.40;99.90;;;;;;5068596;28;20025;-41
2023/01/22 06:16:20;;;;;;;10.18;3.95;;;1.40;99.90;;;;;;5069826;28;20035;-36
2023/01/22 06:18:46;;;;;;;15.50;4.20;;;1.40;99.90;;;;;;5070232;28;20083;-37
2023/01/22 06:21:12;;;;;;;13.13;5.20;;;1.40;99.90;;;;;;5069344;28;20358;-39
2023/01/22 06:23:37;;;;;;;16.42;4.78;;;1.30;99.90;;;;;;5070341;28;20529;-40
2023/01/22 06:26:04;;;;;;;13.63;5.03;;;1.30;99.90;;;;;;5069661;28;20519;-36
2023/01/22 06:28:30;;;;;;;10.02;4.22;;;1.30;99.90;;;;;;5070085;28;20027;-40
2023/01/22 06:30:58;;;;;;;11.95;4.85;;;1.40;99.90;;;;;;5070684;28;20020;-40
2023/01/22 06:33:24;;;;;;;13.32;4.10;;;1.40;99.90;;;;;;5068319;28;20016;-37
2023/01/22 06:35:56;;;;;;;8.32;3.97;;;1.40;99.90;;;;;;5070375;28;20043;-36
2023/01/22 06:38:22;;;;;;;13.70;4.00;;;1.50;99.90;;;;;;5069444;28;20418;-35
2023/01/22 06:40:56;;;;;;;10.68;4.80;;;1.50;99.90;;;;;;5069873;28;20447;-37
2023/01/22 06:43:22;;;;;;;12.23;3.88;;;1.50;99.90;;;;;;5068870;28;20044;-41
2023/01/22 06:45:48;;;;;;;8.82;4.57;;;1.50;99.90;;;;;;5086005;28;20130;-34
2023/01/22 06:48:14;;;;;;;10.82;4.15;;;1.50;99.90;;;;;;5068960;28;20493;-37
2023/01/22 06:50:39;;;;;;;9.40;3.90;;;1.50;99.90;;;;;;5070842;28;20028;-38
2023/01/22 06:53:05;;;;;;;11.85;4.28;;;1.50;99.90;;;;;;5070064;28;20024;-38
2023/01/22 06:55:31;;;;;;;9.00;4.47;;;1.50;99.90;;;;;;5069507;28;20044;-37
2023/01/22 06:57:57;;;;;;;8.45;4.10;;;1.50;99.90;;;;;;5070538;28;20481;-38
2023/01/22 07:00:23;;;;;;;10.48;3.83;;;1.50;99.90;;;;;;5071255;28;20111;-40
2023/01/22 07:02:48;;;;;;;9.77;5.00;;;1.60;99.90;;;;;;5073744;28;20476;-36
2023/01/22 07:05:14;;;;;;;10.77;5.22;;;1.70;99.90;;;;;;5074152;28;20100;-37
2023/01/22 07:07:41;;;;;;;8.60;3.97;;;1.60;99.90;;;;;;5074665;28;20035;-37
2023/01/22 07:10:07;;;;;;;8.57;4.43;;;1.60;99.90;;;;;;5074734;28;20472;-40
2023/01/22 07:12:33;;;;;;;8.30;4.22;;;1.60;99.90;;;;;;5071527;28;20100;-34
2023/01/22 07:14:58;;;;;;;11.50;4.00;;;1.50;99.90;;;;;;5073567;28;20056;-37
2023/01/22 07:17:24;;;;;;;7.25;3.75;;;1.60;99.90;;;;;;5073112;28;20032;-38
2023/01/22 07:19:49;;;;;;;14.00;4.13;;;1.60;99.90;;;;;;5072796;28;20021;-35
2023/01/22 07:22:15;;;;;;;8.00;3.78;;;1.60;99.90;;;;;;5071408;28;20032;-38
2023/01/22 07:24:41;;;;;;;7.57;3.58;;;1.60;99.90;;;;;;5072269;28;20404;-39
2023/01/22 07:27:06;;;;;;;7.35;4.28;;;1.60;99.90;;;;;;5071792;28;20025;-39
2023/01/22 07:29:32;;;;;;;6.95;4.38;;;1.50;99.90;;;;;;5071749;28;20473;-38
2023/01/22 07:31:57;;;;;;;10.75;4.10;;;1.40;99.90;;;;;;5072815;28;20021;-39
2023/01/22 07:34:23;;;;;;;10.18;4.57;;;1.50;99.90;;;;;;5069891;28;20020;-41
2023/01/22 07:36:49;;;;;;;7.35;3.83;;;1.50;99.90;;;;;;5071508;28;20078;-39
2023/01/22 07:39:14;;;;;;;9.35;4.40;;;1.60;99.90;;;;;;5072857;28;20472;-33
2023/01/22 07:41:40;;;;;;;13.20;4.70;;;1.50;99.90;;;;;;5072671;28;20012;-37
2023/01/22 07:44:07;;;;;;;9.48;3.92;;;1.40;99.90;;;;;;5072118;28;20028;-38
2023/01/22 07:46:34;;;;;;;9.52;4.03;;;1.50;99.90;;;;;;5072255;28;20078;-36
2023/01/22 07:48:59;;;;;;;5.50;3.67;;;1.50;99.90;;;;;;5070516;28;20025;-38
2023/01/22 07:51:25;;;;;;;5.30;3.50;;;1.50;99.90;;;;;;5072050;28;20020;-38
2023/01/22 07:53:51;;;;;;;6.30;3.67;;;1.50;99.90;;;;;;5070976;28;20025;-39
2023/01/22 07:56:18;;;;;;;7.82;3.88;;;1.50;99.90;;;;;;5070898;28;20512;-36
2023/01/22 07:58:44;;;;;;;5.82;3.67;;;1.50;99.90;;;;;;5067774;28;20033;-39
2023/01/22 08:01:10;;;;;;;7.47;3.92;;;1.50;99.90;;;;;;5072626;28;21169;-38
2023/01/22 08:03:36;;;;;;;6.05;3.65;;;1.50;99.90;;;;;;5070897;28;20349;-39
2023/01/22 08:06:08;;;;;;;5.78;3.65;;;1.50;99.90;;;;;;5070555;28;20457;-36
2023/01/22 08:08:33;;;;;;;11.23;4.03;;;1.50;99.90;;;;;;5071436;28;20484;-42
2023/01/22 08:10:59;;;;;;;12.82;3.97;;;1.50;99.90;;;;;;5067707;28;20028;-39
2023/01/22 08:13:25;;;;;;;6.80;3.97;;;1.60;99.90;;;;;;5074199;28;20024;-40
2023/01/22 08:15:50;;;;;;;9.23;3.97;;;1.60;99.90;;;;;;5075529;28;20380;-38
2023/01/22 08:18:16;;;;;;;11.20;3.78;;;1.60;99.90;;;;;;5074826;28;20074;-38
2023/01/22 08:20:41;;;;;;;7.38;3.05;;;1.60;99.90;;;;;;5074121;28;20455;-36
2023/01/22 08:23:07;;;;;;;10.68;3.33;;;1.50;99.90;;;;;;5074747;28;20029;-38
2023/01/22 08:25:33;;;;;;;11.52;3.83;;;1.60;99.90;;;;;;5074564;28;20017;-36
2023/01/22 08:28:03;;;;;;;9.32;3.78;;;1.60;99.90;;;;;;5074177;28;20020;-38
2023/01/22 08:30:30;;;;;;;8.38;3.65;;;1.50;99.90;;;;;;5068778;28;20030;-36
2023/01/22 08:32:55;;;;;;;6.57;3.42;;;1.50;99.90;;;;;;5074995;28;20123;-38
2023/01/22 08:35:21;;;;;;;8.35;4.03;;;1.50;99.90;;;;;;5075252;28;20523;-40
2023/01/22 08:37:47;;;;;;;5.80;3.75;;;1.60;99.90;;;;;;5072630;28;20116;-38
2023/01/22 08:40:12;;;;;;;5.00;3.38;;;1.60;99.90;;;;;;5074230;28;20104;-39
2023/01/22 08:42:39;;;;;;;6.40;3.33;;;1.60;99.90;;;;;;5073614;28;20557;-39
2023/01/22 08:45:07;;;;;;;8.98;4.05;;;1.70;99.90;;;;;;5074360;28;20031;-36
2023/01/22 08:47:33;;;;;;;10.25;3.50;;;1.70;99.90;;;;;;5072237;28;20032;-36
2023/01/22 08:50:01;;;;;;;7.88;3.05;;;1.80;99.90;;;;;;5074163;28;20107;-37
2023/01/22 08:52:27;;;;;;;4.60;3.47;;;1.80;99.90;;;;;;5074165;28;20158;-38
2023/01/22 08:54:55;;;;;;;7.22;4.38;;;1.80;99.90;;;;;;5072465;28;20056;-39
2023/01/22 08:57:21;;;;;;;7.18;2.92;;;1.80;99.90;;;;;;5073600;28;20028;-40
2023/01/22 08:59:47;;;;;;;5.57;3.15;;;1.80;99.90;;;;;;5072925;28;20125;-36
2023/01/22 09:02:13;;;;;;;5.10;3.20;;;1.80;99.90;;;;;;5073595;28;20016;-35
2023/01/22 09:04:38;;;;;;;6.18;3.17;;;1.80;99.90;;;;;;5073703;28;20496;-36
2023/01/22 09:07:04;;;;;;;4.78;3.20;;;1.80;99.90;;;;;;5073739;28;20036;-36
2023/01/22 09:09:29;;;;;;;7.80;3.33;;;1.80;99.90;;;;;;5073473;28;20026;-37
2023/01/22 09:11:55;;;;;;;8.45;3.08;;;1.80;99.90;;;;;;5072379;28;20107;-41
2023/01/22 09:14:21;;;;;;;6.40;3.58;;;1.80;99.90;;;;;;5068121;28;20040;-36
2023/01/22 09:16:46;;;;;;;6.38;3.47;;;1.90;99.90;;;;;;5070792;28;20509;-37
2023/01/22 09:19:12;;;;;;;12.05;3.58;;;1.90;99.90;;;;;;5071799;28;20035;-40
2023/01/22 09:21:38;;;;;;;8.30;3.60;;;2.00;99.90;;;;;;5072902;28;20078;-39
2023/01/22 09:24:05;;;;;;;3.95;2.75;;;2.00;99.90;;;;;;5070585;28;20103;-39
2023/01/22 09:26:31;;;;;;;4.57;2.60;;;1.90;99.90;;;;;;5069737;28;20032;-39
2023/01/22 09:28:59;;;;;;;4.43;2.78;;;2.00;99.90;;;;;;5073271;28;20074;-38
2023/01/22 09:31:25;;;;;;;7.65;3.35;;;2.10;99.90;;;;;;5071698;28;20560;-39
2023/01/22 09:33:51;;;;;;;5.88;3.55;;;2.20;99.90;;;;;;5066378;28;20133;-37
2023/01/22 09:36:17;;;;;;;4.80;3.03;;;2.20;99.90;;;;;;5073181;28;20115;-34
2023/01/22 09:38:43;;;;;;;7.00;2.90;;;2.20;99.90;;;;;;5069443;28;20082;-36
2023/01/22 09:41:40;;;;;;;6.20;3.05;;;2.10;99.90;;;;;;5072168;28;20044;-36
2023/01/22 09:44:16;;;;;;;5.90;2.72;;;2.00;99.90;;;;;;5057002;28;20040;-37
2023/01/22 09:46:46;;;;;;;7.28;3.30;;;2.10;99.90;;;;;;5066474;28;20358;-41
2023/01/22 09:49:17;;;;;;;6.15;3.15;;;2.10;99.90;;;;;;5065427;28;20105;-39
2023/01/22 09:51:54;;;;;;;4.90;3.05;;;2.00;99.90;;;;;;5060441;28;20477;-39
2023/01/22 09:54:20;;;;;;;5.32;2.92;;;2.10;99.90;;;;;;5071723;28;20032;-34
2023/01/22 09:56:49;;;;;;;12.82;4.00;;;2.10;99.90;;;;;;5070991;28;20384;-38
2023/01/22 09:59:22;;;;;;;8.20;3.75;;;2.10;99.90;;;;;;5070348;28;20078;-39
2023/01/22 10:01:53;;;;;;;8.80;3.17;;;2.10;99.90;;;;;;5068970;28;20035;-38
2023/01/22 10:04:44;;;;;;;6.97;3.08;;;2.10;99.90;;;;;;5064842;28;20035;-38
2023/01/22 10:07:20;;;;;;;4.75;3.40;;;2.20;99.90;;;;;;5072689;28;20029;-38
2023/01/22 10:09:53;;;;;;;5.60;2.92;;;2.20;99.90;;;;;;5068556;28;20094;-38
2023/01/22 10:12:19;;;;;;;7.97;3.28;;;2.20;99.90;;;;;;5072647;28;20020;-39
2023/01/22 10:14:44;;;;;;;9.55;3.38;;;2.20;99.90;;;;;;5070774;28;20024;-36
2023/01/22 10:17:21;;;;;;;8.98;3.15;;;2.20;99.90;;;;;;5071105;28;20038;-37
2023/01/22 10:19:52;;;;;;;4.55;3.10;;;2.30;99.90;;;;;;5087998;28;20119;-37
2023/01/22 10:22:24;;;;;;;6.80;3.10;;;2.30;99.90;;;;;;5072579;28;20035;-39
2023/01/22 10:24:51;;;;;;;4.60;2.80;;;2.30;99.90;;;;;;5058421;28;20415;-33
2023/01/22 10:27:32;;;;;;;7.55;3.45;;;2.30;99.90;;;;;;5071176;28;20059;-39
2023/01/22 10:30:20;;;;;;;6.75;3.90;;;2.30;99.90;;;;;;5072895;28;20051;-35
2023/01/22 10:32:56;;;;;;;;;;;2.20;99.90;;;;;;5070851;28;20039;-37
2023/01/22 10:35:23;;;;;;;5.93;3.20;;;2.10;99.90;;;;;;5072302;28;20276;-40
2023/01/22 10:37:54;;;;;;;5.63;3.20;;;2.10;99.90;;;;;;5071341;28;20032;-39
2023/01/22 10:40:21;;;;;;;6.78;3.15;;;2.10;99.90;;;;;;5073134;28;20477;-39
2023/01/22 10:43:08;;;;;;;10.43;3.67;;;2.10;99.90;;;;;;5071909;28;20023;-40
2023/01/22 10:45:34;;;;;;;4.22;2.90;;;2.00;99.90;;;;;;5072317;28;20487;-39
2023/01/22 10:48:05;;;;;;;6.25;3.22;;;1.90;99.90;;;;;;5072520;28;20086;-38
2023/01/22 10:50:31;;;;;;;5.22;3.00;;;1.90;99.90;;;;;;5072504;28;20031;-38
2023/01/22 10:52:57;;;;;;;5.03;3.17;;;1.90;99.90;;;;;;5072605;28;20201;-39
2023/01/22 10:55:27;;;;;;;8.95;3.25;;;2.00;99.90;;;;;;5072433;28;20044;-38
2023/01/22 10:58:04;;;;;;;7.55;3.80;;;2.00;99.90;;;;;;5072623;28;20446;-38
2023/01/22 11:00:34;;;;;;;7.15;2.85;;;2.10;99.90;;;;;;5071581;28;20025;-38
2023/01/22 11:03:00;;;;;;;6.80;3.50;;;2.10;99.90;;;;;;5071500;28;20395;-41
2023/01/22 11:05:32;;;;;;;6.47;2.80;;;2.20;99.90;;;;;;5072793;28;20028;-38
2023/01/22 11:08:04;;;;;;;3.63;2.83;;;2.30;99.90;;;;;;5072813;28;20025;-40
2023/01/22 11:10:44;;;;;;;6.50;3.17;;;2.30;99.90;;;;;;5072473;28;20028;-38
2023/01/22 11:13:46;;;;;;;8.45;3.33;;;2.40;99.90;;;;;;5052957;28;20541;-39
2023/01/22 11:16:18;;;;;;;7.20;2.75;;;2.40;99.90;;;;;;5060032;28;20051;-39
2023/01/22 11:18:50;;;;;;;6.65;3.80;;;2.40;99.90;;;;;;5067422;28;20464;-41
2023/01/22 11:21:21;;;;;;;7.28;3.28;;;2.40;99.90;;;;;;5071282;28;20028;-35
2023/01/22 11:24:05;;;;;;;7.47;3.35;;;2.50;99.90;;;;;;5068275;28;20038;-40
2023/01/22 11:26:58;;;;;;;4.95;3.20;;;2.50;99.90;;;;;;5065943;28;20029;-38
2023/01/22 11:29:50;;;;;;;4.78;2.72;;;2.50;99.90;;;;;;5032916;28;20033;-35
2023/01/22 11:32:37;;;;;;;6.53;3.00;;;2.30;99.90;;;;;;5069888;28;20040;-39
2023/01/22 11:35:11;;;;;;;7.05;2.67;;;2.40;99.90;;;;;;5063816;28;20021;-41
2023/01/22 11:37:40;;;;;;;4.97;2.90;;;2.40;99.90;;;;;;5068135;28;20075;-38
2023/01/22 11:40:26;;;;;;;6.88;3.80;;;2.40;99.90;;;;;;5068116;28;20031;-38
2023/01/22 11:43:17;;;;;;;13.43;3.88;;;2.40;99.90;;;;;;5053306;28;20512;-37
2023/01/22 11:45:52;;;;;;;8.43;3.70;;;2.40;99.90;;;;;;5058970;28;20541;-40
2023/01/22 11:48:38;;;;;;;3.88;3.35;;;2.50;99.90;;;;;;5075285;28;20036;-38
2023/01/22 11:51:32;;;;;;;6.35;3.42;;;2.50;99.90;;;;;;5075796;28;20025;-40
2023/01/22 11:54:18;;;;;;;9.50;3.40;;;2.50;99.90;;;;;;5071410;28;20450;-36
2023/01/22 11:57:02;;;;;;;6.85;2.97;;;2.50;99.90;;;;;;5073158;28;20506;-34
2023/01/22 11:59:36;;;;;;;4.07;2.88;;;2.60;99.90;;;;;;5066893;28;20511;-35
2023/01/22 12:02:24;;;;;;;7.45;3.17;;;2.60;99.90;;;;;;5072855;28;20111;-35
2023/01/22 12:05:04;;;;;;;7.78;3.65;;;2.70;99.90;;;;;;5068352;28;20021;-39
2023/01/22 12:07:49;;;;;;;7.68;2.90;;;2.70;99.90;;;;;;5074166;28;20495;-36
2023/01/22 12:10:23;;;;;;;7.70;3.00;;;2.80;99.90;;;;;;5074598;28;20064;-41
2023/01/22 12:13:33;;;;;;;5.57;3.30;;;2.80;99.90;;;;;;5074589;28;20032;-40
2023/01/22 12:16:10;;;;;;;8.15;3.30;;;3.00;99.90;;;;;;5045594;28;20033;-41
2023/01/22 12:18:45;;;;;;;3.28;2.78;;;3.00;99.90;;;;;;5075304;28;20074;-39
2023/01/22 12:21:16;;;;;;;4.60;3.15;;;3.00;99.90;;;;;;5075166;28;20025;-38
2023/01/22 12:23:55;;;;;;;8.60;3.15;;;3.00;99.90;;;;;;5071451;28;20477;-40
2023/01/22 12:26:46;;;;;;;6.82;3.72;;;3.00;99.90;;;;;;5073059;28;20040;-35
2023/01/22 12:29:22;;;;;;;4.78;2.92;;;3.00;99.90;;;;;;5074163;28;20033;-37
2023/01/22 12:31:57;;;;;;;13.25;3.83;;;3.00;99.90;;;;;;5073335;28;20029;-39
2023/01/22 12:34:54;;;;;;;7.70;3.63;;;3.10;99.90;;;;;;5073733;28;20465;-37
2023/01/22 12:37:23;;;;;;;9.07;3.63;;;3.10;99.90;;;;;;5073697;28;20162;-39
2023/01/22 12:40:27;;;;;;;6.38;3.67;;;3.10;99.90;;;;;;5075080;28;20027;-36
2023/01/22 12:43:03;;;;;;;8.05;3.47;;;3.20;99.90;;;;;;5069533;28;20059;-37
2023/01/22 12:45:53;;;;;;;6.82;2.95;;;3.20;99.90;;;;;;5054958;28;20017;-38
2023/01/22 12:48:25;;;;;;;5.50;3.33;;;3.20;99.90;;;;;;5071277;28;20032;-37
2023/01/22 12:50:53;;;;;;;7.47;3.38;;;3.30;99.90;;;;;;5073717;28;20048;-37
2023/01/22 12:53:21;;;;;;;7.57;3.35;;;3.20;99.90;;;;;;5070085;28;20460;-40
2023/01/22 12:56:00;;;;;;;8.63;4.38;;;3.10;99.90;;;;;;5074449;28;20041;-41
2023/01/22 12:58:29;;;;;;;4.00;2.92;;;3.00;99.90;;;;;;5071656;28;20111;-39
2023/01/22 13:01:18;;;;;;;7.60;3.47;;;3.10;99.90;;;;;;5073651;28;20059;-41
2023/01/22 13:03:43;;;;;;;6.20;3.30;;;3.20;99.90;;;;;;5060344;28;20098;-38
2023/01/22 13:06:28;;;;;;;5.63;3.80;;;3.20;99.90;;;;;;5073521;28;20024;-38
2023/01/22 13:08:54;;;;;;;6.30;3.15;;;3.30;99.90;;;;;;5073119;28;20059;-41
2023/01/22 13:11:38;;;;;;;4.72;2.88;;;3.20;99.90;;;;;;5072974;28;20503;-43
2023/01/22 13:14:41;;;;;;;5.25;2.90;;;3.10;99.90;;;;;;5073527;28;20541;-41